Disclaimer

Please do not use the information listed here in-flight or in-navigation, as they are not provided to us by the airports but are provided by volunteers, so they might be outdated.

Search


Regions


Airport information page

Radio informations:
Tower (TWR) - 129.85 MHz
Ground (GND) - 121.6 MHz
Automatic Terminal Information Service (ATIS) - 121.15 MHz

Airport informations:
Latitude: 52° 11' 13.92" N
Longitude: 007° 05' 13.07" W
Elevation: 119 feet - 36 meters
Operating hours: Remarks
Operating agency: Civil government, landing fees and diplomatic clearance may be required
Timezone: UTC 0(+1DT) - Last Sunday in March to last Sunday in October
Fuel: Jet A1, without icing nhibitor.

Runway information:
03/21 - 4701 x 98 feet< - >1433 x 30 meters

Recent METARs:
EIWF 181800Z 09008KT CAVOK 08/04 Q1025
EIWF 181800Z 09008KT CAVOK 08/04 Q1025
EIWF 181930Z 10012KT CAVOK 09/05 Q1024

Airport on the map: